EDNY

Friedrichshafen Airport

Friedrichshafen, Germany
METAR EDNY 241150Z 02014KT 9999 OVC022 M01/M05 Q1013
Observed Flight Rules
Feb-24 @ 11:50 UTC (33 minutes ago) Marginal Visual Flight Rules
Wind Visibility Clouds
20° at 14 knots 10,000+ meters
  • Overcast at 2,200' AGL
Temperatures Readings
Current -1°C / 30°F
Dewpoint -5°C / 23°F
Humidity 75%
Altimeter 29.91" Hg
Pressure 1013 hPa
Elevation 424
METAR EDNY 241150Z 02014KT 9999 OVC022 M01/M05 Q1013
Observed Flight Rules
Feb-24 @ 11:50 UTC
(33 minutes ago)
MVFR
Wind Visibility
20° at 14 knots 10,000+ meters
Clouds
  • Overcast at 2,200' AGL
Temperature Dewpoint
-1°C / 30°F -5°C / 23°F
Humidity Altimeter Pressure
75% 29.91" Hg 1013 hPa